sensor_id;sensor_type;location;lat;lon;timestamp;pressure;altitude;pressure_sealevel;temperature;humidity
25350;BME280;13302;48.796;11.978;2023-04-05T00:02:33;97326.66;;;3.05;28.34
25350;BME280;13302;48.796;11.978;2023-04-05T00:05:22;97323.41;;;3.03;28.47
25350;BME280;13302;48.796;11.978;2023-04-05T00:08:16;97322.59;;;3.03;28.45
25350;BME280;13302;48.796;11.978;2023-04-05T00:11:09;97324.00;;;3.00;28.41
25350;BME280;13302;48.796;11.978;2023-04-05T00:13:58;97315.25;;;2.98;28.32
25350;BME280;13302;48.796;11.978;2023-04-05T00:16:46;97320.72;;;2.98;28.48
25350;BME280;13302;48.796;11.978;2023-04-05T00:19:33;97318.00;;;2.98;28.45
25350;BME280;13302;48.796;11.978;2023-04-05T00:22:22;97312.03;;;2.96;28.46
25350;BME280;13302;48.796;11.978;2023-04-05T00:25:12;97318.31;;;2.97;28.55
25350;BME280;13302;48.796;11.978;2023-04-05T00:27:59;97314.75;;;2.96;28.49
25350;BME280;13302;48.796;11.978;2023-04-05T00:30:46;97315.03;;;2.95;28.66
25350;BME280;13302;48.796;11.978;2023-04-05T00:33:33;97306.84;;;2.95;28.56
25350;BME280;13302;48.796;11.978;2023-04-05T00:36:20;97312.31;;;2.95;28.41
25350;BME280;13302;48.796;11.978;2023-04-05T00:39:07;97302.50;;;2.94;28.30
25350;BME280;13302;48.796;11.978;2023-04-05T00:41:55;97304.41;;;2.93;28.63
25350;BME280;13302;48.796;11.978;2023-04-05T00:44:43;97304.41;;;2.93;28.57
25350;BME280;13302;48.796;11.978;2023-04-05T00:47:30;97308.25;;;2.92;28.59
25350;BME280;13302;48.796;11.978;2023-04-05T00:50:17;97301.69;;;2.93;28.72
25350;BME280;13302;48.796;11.978;2023-04-05T00:53:04;97313.44;;;2.94;28.68
25350;BME280;13302;48.796;11.978;2023-04-05T00:55:51;97302.50;;;2.94;28.50
25350;BME280;13302;48.796;11.978;2023-04-05T00:58:39;97297.84;;;2.94;28.61
25350;BME280;13302;48.796;11.978;2023-04-05T01:01:27;97297.03;;;2.94;28.76
25350;BME280;13302;48.796;11.978;2023-04-05T01:04:14;97302.50;;;2.94;28.87
25350;BME280;13302;48.796;11.978;2023-04-05T01:07:30;97296.22;;;2.93;28.78
25350;BME280;13302;48.796;11.978;2023-04-05T01:10:27;97296.50;;;2.92;28.69
25350;BME280;13302;48.796;11.978;2023-04-05T01:13:16;97284.78;;;2.91;28.49
25350;BME280;13302;48.796;11.978;2023-04-05T01:16:04;97289.41;;;2.91;28.65
25350;BME280;13302;48.796;11.978;2023-04-05T01:18:52;97294.38;;;2.89;28.75
25350;BME280;13302;48.796;11.978;2023-04-05T01:22:01;97282.09;;;2.86;28.80
25350;BME280;13302;48.796;11.978;2023-04-05T01:28:22;97281.03;;;2.82;28.84
25350;BME280;13302;48.796;11.978;2023-04-05T01:37:10;97279.50;;;2.76;28.90
25350;BME280;13302;48.796;11.978;2023-04-05T01:39:59;97278.69;;;2.75;28.95
25350;BME280;13302;48.796;11.978;2023-04-05T01:42:46;97274.63;;;2.73;29.12
25350;BME280;13302;48.796;11.978;2023-04-05T01:45:33;97274.09;;;2.71;29.06
25350;BME280;13302;48.796;11.978;2023-04-05T01:48:20;97276.31;;;2.69;29.17
25350;BME280;13302;48.796;11.978;2023-04-05T01:51:07;97270.31;;;2.67;29.29
25350;BME280;13302;48.796;11.978;2023-04-05T01:53:54;97268.66;;;2.66;29.32
25350;BME280;13302;48.796;11.978;2023-04-05T01:56:41;97261.59;;;2.65;29.34
25350;BME280;13302;48.796;11.978;2023-04-05T01:59:28;97267.06;;;2.65;29.56
25350;BME280;13302;48.796;11.978;2023-04-05T02:02:15;97258.88;;;2.65;29.54
25350;BME280;13302;48.796;11.978;2023-04-05T02:05:02;97263.22;;;2.66;29.53
25350;BME280;13302;48.796;11.978;2023-04-05T02:07:49;97262.72;;;2.64;29.36
25350;BME280;13302;48.796;11.978;2023-04-05T02:10:36;97259.97;;;2.64;29.55
25350;BME280;13302;48.796;11.978;2023-04-05T02:13:24;97255.63;;;2.63;29.52
25350;BME280;13302;48.796;11.978;2023-04-05T02:16:12;97256.72;;;2.62;29.50
25350;BME280;13302;48.796;11.978;2023-04-05T02:18:59;97257.84;;;2.61;29.65
25350;BME280;13302;48.796;11.978;2023-04-05T02:21:46;97251.84;;;2.59;29.46
25350;BME280;13302;48.796;11.978;2023-04-05T02:24:37;97251.03;;;2.58;29.30
25350;BME280;13302;48.796;11.978;2023-04-05T02:27:24;97248.28;;;2.58;29.45
25350;BME280;13302;48.796;11.978;2023-04-05T02:30:13;97243.16;;;2.57;29.49
25350;BME280;13302;48.796;11.978;2023-04-05T02:33:01;97240.69;;;2.55;29.35
25350;BME280;13302;48.796;11.978;2023-04-05T02:35:50;97242.31;;;2.56;29.19
25350;BME280;13302;48.796;11.978;2023-04-05T02:38:38;97240.69;;;2.55;29.24
25350;BME280;13302;48.796;11.978;2023-04-05T02:41:25;97241.78;;;2.54;29.32
25350;BME280;13302;48.796;11.978;2023-04-05T02:44:12;97244.81;;;2.53;29.37
25350;BME280;13302;48.796;11.978;2023-04-05T02:46:59;97246.75;;;2.52;29.28
25350;BME280;13302;48.796;11.978;2023-04-05T02:49:50;97241.28;;;2.52;29.24
25350;BME280;13302;48.796;11.978;2023-04-05T02:52:38;97230.66;;;2.51;29.30
25350;BME280;13302;48.796;11.978;2023-04-05T02:55:25;97236.91;;;2.51;29.10
25350;BME280;13302;48.796;11.978;2023-04-05T02:58:12;97235.28;;;2.50;29.37
25350;BME280;13302;48.796;11.978;2023-04-05T03:01:04;97239.91;;;2.50;29.36
25350;BME280;13302;48.796;11.978;2023-04-05T03:03:54;97229.31;;;2.48;29.08
25350;BME280;13302;48.796;11.978;2023-04-05T03:06:41;97233.13;;;2.47;29.11
25350;BME280;13302;48.796;11.978;2023-04-05T03:09:33;97229.59;;;2.47;29.24
25350;BME280;13302;48.796;11.978;2023-04-05T03:12:24;97228.28;;;2.44;29.24
25350;BME280;13302;48.796;11.978;2023-04-05T03:15:12;97232.09;;;2.43;29.08
25350;BME280;13302;48.796;11.978;2023-04-05T03:18:03;97232.38;;;2.42;29.48
25350;BME280;13302;48.796;11.978;2023-04-05T03:20:50;97228.03;;;2.41;29.06
25350;BME280;13302;48.796;11.978;2023-04-05T03:23:44;97229.13;;;2.40;29.23
25350;BME280;13302;48.796;11.978;2023-04-05T03:26:35;97226.41;;;2.40;29.36
25350;BME280;13302;48.796;11.978;2023-04-05T03:29:22;97224.78;;;2.39;29.21
25350;BME280;13302;48.796;11.978;2023-04-05T03:32:10;97236.50;;;2.39;29.27
25350;BME280;13302;48.796;11.978;2023-04-05T03:35:05;97236.78;;;2.38;29.02
25350;BME280;13302;48.796;11.978;2023-04-05T03:37:54;97228.59;;;2.38;29.04
25350;BME280;13302;48.796;11.978;2023-04-05T03:40:42;97228.59;;;2.38;29.02
25350;BME280;13302;48.796;11.978;2023-04-05T03:43:30;97224.53;;;2.35;29.11
25350;BME280;13302;48.796;11.978;2023-04-05T03:46:17;97226.44;;;2.35;29.21
25350;BME280;13302;48.796;11.978;2023-04-05T03:49:04;97222.69;;;2.30;29.10
25350;BME280;13302;48.796;11.978;2023-04-05T03:51:52;97223.78;;;2.29;29.10
25350;BME280;13302;48.796;11.978;2023-04-05T03:54:38;97226.81;;;2.28;29.06
25350;BME280;13302;48.796;11.978;2023-04-05T03:57:28;97226.81;;;2.28;29.20
25350;BME280;13302;48.796;11.978;2023-04-05T04:00:18;97232.53;;;2.26;29.12
25350;BME280;13302;48.796;11.978;2023-04-05T04:03:22;97227.34;;;2.25;29.08
25350;BME280;13302;48.796;11.978;2023-04-05T04:06:12;97225.19;;;2.27;29.17
25350;BME280;13302;48.796;11.978;2023-04-05T04:09:00;97224.94;;;2.23;28.93
25350;BME280;13302;48.796;11.978;2023-04-05T04:11:49;97222.50;;;2.22;29.10
25350;BME280;13302;48.796;11.978;2023-04-05T04:14:39;97226.31;;;2.21;28.98
25350;BME280;13302;48.796;11.978;2023-04-05T04:17:43;97222.25;;;2.18;29.02
25350;BME280;13302;48.796;11.978;2023-04-05T04:20:33;97223.66;;;2.16;29.03
25350;BME280;13302;48.796;11.978;2023-04-05T04:23:29;97226.94;;;2.13;29.20
25350;BME280;13302;48.796;11.978;2023-04-05T04:26:35;97223.16;;;2.09;29.18
25350;BME280;13302;48.796;11.978;2023-04-05T04:29:45;97221.00;;;2.06;29.14
25350;BME280;13302;48.796;11.978;2023-04-05T04:32:41;97216.97;;;2.03;29.31
25350;BME280;13302;48.796;11.978;2023-04-05T04:35:44;97214.50;;;2.02;29.51
25350;BME280;13302;48.796;11.978;2023-04-05T04:38:48;97213.69;;;2.01;29.26
25350;BME280;13302;48.796;11.978;2023-04-05T04:41:54;97216.69;;;2.00;29.44
25350;BME280;13302;48.796;11.978;2023-04-05T04:45:06;97213.19;;;1.99;29.46
25350;BME280;13302;48.796;11.978;2023-04-05T04:48:05;97212.38;;;1.99;29.38
25350;BME280;13302;48.796;11.978;2023-04-05T04:51:25;97209.63;;;1.99;29.47
25350;BME280;13302;48.796;11.978;2023-04-05T04:54:12;97213.19;;;1.99;29.47
25350;BME280;13302;48.796;11.978;2023-04-05T04:57:03;97216.19;;;1.98;29.31
25350;BME280;13302;48.796;11.978;2023-04-05T04:59:50;97214.56;;;1.97;29.37
25350;BME280;13302;48.796;11.978;2023-04-05T05:02:38;97212.41;;;1.94;29.21
25350;BME280;13302;48.796;11.978;2023-04-05T05:05:25;97222.78;;;1.92;29.48
25350;BME280;13302;48.796;11.978;2023-04-05T05:08:13;97221.16;;;1.91;29.41
25350;BME280;13302;48.796;11.978;2023-04-05T05:11:01;97215.16;;;1.89;29.45
25350;BME280;13302;48.796;11.978;2023-04-05T05:13:48;97217.91;;;1.89;29.52
25350;BME280;13302;48.796;11.978;2023-04-05T05:16:42;97224.16;;;1.89;29.87
25350;BME280;13302;48.796;11.978;2023-04-05T05:19:30;97220.63;;;1.89;29.89
25350;BME280;13302;48.796;11.978;2023-04-05T05:22:18;97215.72;;;1.91;29.84
25350;BME280;13302;48.796;11.978;2023-04-05T05:25:06;97223.59;;;1.92;29.83
25350;BME280;13302;48.796;11.978;2023-04-05T05:27:53;97220.59;;;1.94;29.97
25350;BME280;13302;48.796;11.978;2023-04-05T05:30:42;97234.44;;;1.97;30.00
25350;BME280;13302;48.796;11.978;2023-04-05T05:33:29;97228.72;;;1.99;30.40
25350;BME280;13302;48.796;11.978;2023-04-05T05:36:16;97236.31;;;2.02;30.46
25350;BME280;13302;48.796;11.978;2023-04-05T05:39:05;97225.94;;;2.04;30.46
25350;BME280;13302;48.796;11.978;2023-04-05T05:41:53;97229.19;;;2.06;30.46
25350;BME280;13302;48.796;11.978;2023-04-05T05:44:40;97228.91;;;2.07;30.42
25350;BME280;13302;48.796;11.978;2023-04-05T05:47:27;97232.16;;;2.09;30.52
25350;BME280;13302;48.796;11.978;2023-04-05T05:50:14;97233.50;;;2.12;30.29
25350;BME280;13302;48.796;11.978;2023-04-05T05:53:02;97240.03;;;2.16;30.54
25350;BME280;13302;48.796;11.978;2023-04-05T05:55:49;97242.97;;;2.19;30.61
25350;BME280;13302;48.796;11.978;2023-04-05T05:58:37;97236.66;;;2.24;30.62
25350;BME280;13302;48.796;11.978;2023-04-05T06:01:24;97245.59;;;2.29;30.71
25350;BME280;13302;48.796;11.978;2023-04-05T06:04:13;97232.19;;;2.33;30.71
25350;BME280;13302;48.796;11.978;2023-04-05T06:07:01;97239.00;;;2.36;30.79
25350;BME280;13302;48.796;11.978;2023-04-05T06:09:48;97242.78;;;2.40;30.74
25350;BME280;13302;48.796;11.978;2023-04-05T06:12:35;97242.19;;;2.43;30.92
25350;BME280;13302;48.796;11.978;2023-04-05T06:15:22;97240.78;;;2.45;31.07
25350;BME280;13302;48.796;11.978;2023-04-05T06:18:09;97242.97;;;2.48;30.68
25350;BME280;13302;48.796;11.978;2023-04-05T06:20:56;97250.28;;;2.53;30.93
25350;BME280;13302;48.796;11.978;2023-04-05T06:23:43;97246.91;;;2.61;30.86
25350;BME280;13302;48.796;11.978;2023-04-05T06:26:30;97244.41;;;2.64;30.92
25350;BME280;13302;48.796;11.978;2023-04-05T06:29:17;97246.78;;;2.71;30.99
25350;BME280;13302;48.796;11.978;2023-04-05T06:32:04;97251.09;;;2.77;31.00
25350;BME280;13302;48.796;11.978;2023-04-05T06:34:51;97251.28;;;2.86;31.05
25350;BME280;13302;48.796;11.978;2023-04-05T06:37:39;97246.75;;;2.95;30.90
25350;BME280;13302;48.796;11.978;2023-04-05T06:40:27;97253.75;;;3.06;30.50
25350;BME280;13302;48.796;11.978;2023-04-05T06:43:14;97259.09;;;3.16;30.76
25350;BME280;13302;48.796;11.978;2023-04-05T06:46:01;97252.69;;;3.26;30.16
25350;BME280;13302;48.796;11.978;2023-04-05T06:48:48;97255.56;;;3.34;30.20
25350;BME280;13302;48.796;11.978;2023-04-05T06:51:36;97257.88;;;3.46;30.08
25350;BME280;13302;48.796;11.978;2023-04-05T06:54:23;97249.50;;;3.56;29.68
25350;BME280;13302;48.796;11.978;2023-04-05T06:57:10;97246.63;;;3.66;29.82
25350;BME280;13302;48.796;11.978;2023-04-05T06:59:57;97257.41;;;3.76;29.72
25350;BME280;13302;48.796;11.978;2023-04-05T07:02:44;97248.22;;;3.86;29.63
25350;BME280;13302;48.796;11.978;2023-04-05T07:05:31;97249.38;;;3.98;29.46
25350;BME280;13302;48.796;11.978;2023-04-05T07:08:22;97245.69;;;4.08;29.37
25350;BME280;13302;48.796;11.978;2023-04-05T07:11:11;97245.47;;;4.18;29.14
25350;BME280;13302;48.796;11.978;2023-04-05T07:13:59;97251.28;;;4.30;29.08
25350;BME280;13302;48.796;11.978;2023-04-05T07:16:46;97244.84;;;4.40;29.04
25350;BME280;13302;48.796;11.978;2023-04-05T07:19:35;97248.78;;;4.47;29.13
25350;BME280;13302;48.796;11.978;2023-04-05T07:22:22;97242.53;;;4.60;28.77
25350;BME280;13302;48.796;11.978;2023-04-05T07:25:09;97247.00;;;4.70;28.84
25350;BME280;13302;48.796;11.978;2023-04-05T07:27:56;97240.03;;;4.78;28.58
25350;BME280;13302;48.796;11.978;2023-04-05T07:30:43;97240.97;;;4.87;28.77
25350;BME280;13302;48.796;11.978;2023-04-05T07:33:30;97244.59;;;4.96;28.55
25350;BME280;13302;48.796;11.978;2023-04-05T07:36:17;97243.06;;;5.03;28.57
25350;BME280;13302;48.796;11.978;2023-04-05T07:39:05;97242.34;;;5.12;28.56
25350;BME280;13302;48.796;11.978;2023-04-05T07:41:52;97237.56;;;5.17;28.27
25350;BME280;13302;48.796;11.978;2023-04-05T07:44:39;97242.31;;;5.25;28.43
25350;BME280;13302;48.796;11.978;2023-04-05T07:47:26;97243.31;;;5.29;28.14
25350;BME280;13302;48.796;11.978;2023-04-05T07:50:13;97248.69;;;5.34;28.30
25350;BME280;13302;48.796;11.978;2023-04-05T07:53:01;97246.47;;;5.36;28.00
25350;BME280;13302;48.796;11.978;2023-04-05T07:55:49;97244.75;;;5.40;27.98
25350;BME280;13302;48.796;11.978;2023-04-05T07:58:37;97246.53;;;5.45;28.07
25350;BME280;13302;48.796;11.978;2023-04-05T08:01:27;97244.06;;;5.57;27.84
25350;BME280;13302;48.796;11.978;2023-04-05T08:04:14;97238.06;;;5.69;27.50
25350;BME280;13302;48.796;11.978;2023-04-05T08:07:01;97228.28;;;5.76;27.61
25350;BME280;13302;48.796;11.978;2023-04-05T08:09:48;97240.25;;;5.80;27.20
25350;BME280;13302;48.796;11.978;2023-04-05T08:12:35;97239.13;;;5.81;27.10
25350;BME280;13302;48.796;11.978;2023-04-05T08:15:24;97246.84;;;5.79;27.21
25350;BME280;13302;48.796;11.978;2023-04-05T08:18:12;97240.53;;;5.79;27.18
25350;BME280;13302;48.796;11.978;2023-04-05T08:20:59;97233.44;;;5.78;27.21
25350;BME280;13302;48.796;11.978;2023-04-05T08:23:46;97236.19;;;5.78;27.41
25350;BME280;13302;48.796;11.978;2023-04-05T08:26:33;97235.88;;;5.79;27.07
25350;BME280;13302;48.796;11.978;2023-04-05T08:29:20;97245.84;;;5.75;27.15
25350;BME280;13302;48.796;11.978;2023-04-05T08:32:07;97234.69;;;5.72;27.02
25350;BME280;13302;48.796;11.978;2023-04-05T08:34:55;97236.50;;;5.76;26.95
25350;BME280;13302;48.796;11.978;2023-04-05T08:37:42;97233.44;;;5.78;26.92
25350;BME280;13302;48.796;11.978;2023-04-05T08:40:44;97241.66;;;5.78;27.13
25350;BME280;13302;48.796;11.978;2023-04-05T08:43:40;97228.47;;;5.80;27.18
25350;BME280;13302;48.796;11.978;2023-04-05T08:46:33;97233.00;;;5.84;26.84
25350;BME280;13302;48.796;11.978;2023-04-05T08:49:21;97237.25;;;5.90;26.80
25350;BME280;13302;48.796;11.978;2023-04-05T08:52:08;97231.16;;;5.93;26.76
25350;BME280;13302;48.796;11.978;2023-04-05T08:54:55;97230.69;;;6.00;26.77
25350;BME280;13302;48.796;11.978;2023-04-05T08:57:43;97227.31;;;6.03;26.82
25350;BME280;13302;48.796;11.978;2023-04-05T09:00:35;97229.94;;;6.08;26.88
25350;BME280;13302;48.796;11.978;2023-04-05T09:03:25;97227.13;;;6.13;26.87
25350;BME280;13302;48.796;11.978;2023-04-05T09:06:13;97222.28;;;6.19;26.52
25350;BME280;13302;48.796;11.978;2023-04-05T09:09:05;97222.78;;;6.21;26.57
25350;BME280;13302;48.796;11.978;2023-04-05T09:11:52;97221.56;;;6.27;26.49
25350;BME280;13302;48.796;11.978;2023-04-05T09:14:39;97226.41;;;6.30;26.38
25350;BME280;13302;48.796;11.978;2023-04-05T09:17:27;97219.66;;;6.36;26.40
25350;BME280;13302;48.796;11.978;2023-04-05T09:20:15;97225.81;;;6.41;26.10
25350;BME280;13302;48.796;11.978;2023-04-05T09:23:03;97216.13;;;6.44;26.09
25350;BME280;13302;48.796;11.978;2023-04-05T09:25:50;97224.88;;;6.46;26.16
25350;BME280;13302;48.796;11.978;2023-04-05T09:28:41;97225.88;;;6.50;25.92
25350;BME280;13302;48.796;11.978;2023-04-05T09:31:34;97214.75;;;6.55;25.71
25350;BME280;13302;48.796;11.978;2023-04-05T09:34:29;97213.13;;;6.54;25.58
25350;BME280;13302;48.796;11.978;2023-04-05T09:37:17;97219.78;;;6.62;25.68
25350;BME280;13302;48.796;11.978;2023-04-05T09:40:06;97216.41;;;6.65;25.66
25350;BME280;13302;48.796;11.978;2023-04-05T09:42:54;97206.56;;;6.72;25.48
25350;BME280;13302;48.796;11.978;2023-04-05T09:45:42;97217.41;;;6.77;25.50
25350;BME280;13302;48.796;11.978;2023-04-05T09:48:45;97216.00;;;6.80;25.36
25350;BME280;13302;48.796;11.978;2023-04-05T09:51:35;97218.25;;;6.86;25.29
25350;BME280;13302;48.796;11.978;2023-04-05T09:54:24;97218.59;;;6.93;25.23
25350;BME280;13302;48.796;11.978;2023-04-05T09:57:11;97228.97;;;6.97;25.08
25350;BME280;13302;48.796;11.978;2023-04-05T09:59:59;97225.59;;;7.00;25.09
25350;BME280;13302;48.796;11.978;2023-04-05T10:02:51;97227.38;;;7.04;25.09
25350;BME280;13302;48.796;11.978;2023-04-05T10:05:38;97216.72;;;7.11;24.87
25350;BME280;13302;48.796;11.978;2023-04-05T10:08:26;97217.06;;;7.18;24.99
25350;BME280;13302;48.796;11.978;2023-04-05T10:11:16;97225.47;;;7.22;24.92
25350;BME280;13302;48.796;11.978;2023-04-05T10:14:05;97215.13;;;7.27;24.82
25350;BME280;13302;48.796;11.978;2023-04-05T10:17:00;97219.66;;;7.32;24.78
25350;BME280;13302;48.796;11.978;2023-04-05T10:25:49;97198.34;;;7.55;24.61
25350;BME280;13302;48.796;11.978;2023-04-05T10:28:46;97205.34;;;7.61;24.54
25350;BME280;13302;48.796;11.978;2023-04-05T10:32:29;97217.63;;;7.63;24.22
25350;BME280;13302;48.796;11.978;2023-04-05T10:35:40;97206.31;;;7.73;24.11
25350;BME280;13302;48.796;11.978;2023-04-05T10:38:35;97198.69;;;7.79;24.12
25350;BME280;13302;48.796;11.978;2023-04-05T10:41:41;97204.53;;;7.86;23.91
25350;BME280;13302;48.796;11.978;2023-04-05T10:44:30;97202.59;;;7.87;23.75
25350;BME280;13302;48.796;11.978;2023-04-05T10:47:18;97201.09;;;7.89;23.83
25350;BME280;13302;48.796;11.978;2023-04-05T10:50:16;97199.00;;;7.95;23.83
25350;BME280;13302;48.796;11.978;2023-04-05T10:53:06;97198.66;;;7.96;23.33
25350;BME280;13302;48.796;11.978;2023-04-05T10:55:56;97195.28;;;7.99;23.47
25350;BME280;13302;48.796;11.978;2023-04-05T10:58:44;97199.16;;;7.98;23.65
25350;BME280;13302;48.796;11.978;2023-04-05T11:01:32;97205.47;;;7.99;23.65
25350;BME280;13302;48.796;11.978;2023-04-05T11:04:20;97205.94;;;8.01;23.47
25350;BME280;13302;48.796;11.978;2023-04-05T11:07:12;97190.56;;;8.00;23.46
25350;BME280;13302;48.796;11.978;2023-04-05T11:10:06;97197.69;;;8.01;22.90
25350;BME280;13302;48.796;11.978;2023-04-05T11:16:09;97183.47;;;7.99;23.22
25350;BME280;13302;48.796;11.978;2023-04-05T11:18:56;97188.31;;;8.02;23.36
25350;BME280;13302;48.796;11.978;2023-04-05T11:21:43;97182.31;;;8.00;23.19
25350;BME280;13302;48.796;11.978;2023-04-05T11:27:36;97184.88;;;8.05;23.29
25350;BME280;13302;48.796;11.978;2023-04-05T11:30:46;97175.50;;;8.06;23.29
25350;BME280;13302;48.796;11.978;2023-04-05T11:36:46;97173.69;;;8.18;23.19
25350;BME280;13302;48.796;11.978;2023-04-05T11:39:34;97166.72;;;8.21;23.45
25350;BME280;13302;48.796;11.978;2023-04-05T11:42:23;97169.97;;;8.23;23.03
25350;BME280;13302;48.796;11.978;2023-04-05T11:45:10;97168.66;;;8.20;22.89
25350;BME280;13302;48.796;11.978;2023-04-05T11:48:08;97165.41;;;8.27;22.46
25350;BME280;13302;48.796;11.978;2023-04-05T11:50:56;97164.91;;;8.25;22.48
25350;BME280;13302;48.796;11.978;2023-04-05T11:53:46;97161.03;;;8.26;22.50
25350;BME280;13302;48.796;11.978;2023-04-05T11:56:33;97167.84;;;8.20;22.72
25350;BME280;13302;48.796;11.978;2023-04-05T11:59:27;97157.50;;;8.17;22.08
25350;BME280;13302;48.796;11.978;2023-04-05T12:02:15;97160.59;;;8.15;22.28
25350;BME280;13302;48.796;11.978;2023-04-05T12:05:02;97155.72;;;8.12;22.42
25350;BME280;13302;48.796;11.978;2023-04-05T12:07:52;97152.81;;;8.09;22.69
25350;BME280;13302;48.796;11.978;2023-04-05T12:10:42;97162.84;;;8.13;22.74
25350;BME280;13302;48.796;11.978;2023-04-05T12:13:32;97158.78;;;8.19;22.75
25350;BME280;13302;48.796;11.978;2023-04-05T12:16:19;97151.16;;;8.25;22.70
25350;BME280;13302;48.796;11.978;2023-04-05T12:19:06;97150.16;;;8.29;22.84
25350;BME280;13302;48.796;11.978;2023-04-05T12:21:53;97138.16;;;8.34;22.74
25350;BME280;13302;48.796;11.978;2023-04-05T12:24:40;97141.41;;;8.36;22.63
25350;BME280;13302;48.796;11.978;2023-04-05T12:27:28;97142.00;;;8.42;22.63
25350;BME280;13302;48.796;11.978;2023-04-05T12:30:19;97148.97;;;8.48;22.80
25350;BME280;13302;48.796;11.978;2023-04-05T12:33:07;97139.09;;;8.47;22.59
25350;BME280;13302;48.796;11.978;2023-04-05T12:35:55;97137.81;;;8.53;22.45
25350;BME280;13302;48.796;11.978;2023-04-05T12:38:43;97128.88;;;8.47;22.42
25350;BME280;13302;48.796;11.978;2023-04-05T12:41:31;97122.06;;;8.53;22.01
25350;BME280;13302;48.796;11.978;2023-04-05T12:44:29;97125.16;;;8.52;22.31
25350;BME280;13302;48.796;11.978;2023-04-05T12:47:16;97118.16;;;8.54;22.57
25350;BME280;13302;48.796;11.978;2023-04-05T12:50:15;97116.91;;;8.52;22.31
25350;BME280;13302;48.796;11.978;2023-04-05T12:53:06;97118.97;;;8.55;21.94
25350;BME280;13302;48.796;11.978;2023-04-05T12:55:54;97115.09;;;8.56;22.10
25350;BME280;13302;48.796;11.978;2023-04-05T12:58:41;97111.34;;;8.60;22.19
25350;BME280;13302;48.796;11.978;2023-04-05T13:01:28;97111.47;;;8.64;21.89
25350;BME280;13302;48.796;11.978;2023-04-05T13:04:17;97108.06;;;8.67;22.03
25350;BME280;13302;48.796;11.978;2023-04-05T13:07:04;97103.34;;;8.67;22.29
25350;BME280;13302;48.796;11.978;2023-04-05T13:09:51;97103.63;;;8.74;22.26
25350;BME280;13302;48.796;11.978;2023-04-05T13:12:38;97103.31;;;8.76;22.24
25350;BME280;13302;48.796;11.978;2023-04-05T13:15:25;97098.41;;;8.82;21.95
25350;BME280;13302;48.796;11.978;2023-04-05T13:18:12;97097.75;;;8.85;21.97
25350;BME280;13302;48.796;11.978;2023-04-05T13:21:00;97099.03;;;8.87;22.34
25350;BME280;13302;48.796;11.978;2023-04-05T13:23:53;97097.56;;;8.90;21.90
25350;BME280;13302;48.796;11.978;2023-04-05T13:26:40;97094.94;;;8.93;21.86
25350;BME280;13302;48.796;11.978;2023-04-05T13:29:27;97092.31;;;8.97;21.86
25350;BME280;13302;48.796;11.978;2023-04-05T13:32:14;97098.28;;;8.99;21.94
25350;BME280;13302;48.796;11.978;2023-04-05T13:35:01;97086.13;;;9.00;21.73
25350;BME280;13302;48.796;11.978;2023-04-05T13:37:48;97078.34;;;9.02;21.82
25350;BME280;13302;48.796;11.978;2023-04-05T13:40:35;97082.69;;;9.03;21.72
25350;BME280;13302;48.796;11.978;2023-04-05T13:43:22;97074.09;;;9.04;21.72
25350;BME280;13302;48.796;11.978;2023-04-05T13:46:09;97071.47;;;9.08;21.86
25350;BME280;13302;48.796;11.978;2023-04-05T13:48:56;97069.19;;;9.10;21.75
25350;BME280;13302;48.796;11.978;2023-04-05T13:51:43;97063.66;;;9.10;21.43
25350;BME280;13302;48.796;11.978;2023-04-05T13:54:30;97063.31;;;9.11;21.45
25350;BME280;13302;48.796;11.978;2023-04-05T13:57:17;97064.00;;;9.08;21.70
25350;BME280;13302;48.796;11.978;2023-04-05T14:00:05;97066.50;;;9.01;21.75
25350;BME280;13302;48.796;11.978;2023-04-05T14:02:58;97060.97;;;9.01;21.87
25350;BME280;13302;48.796;11.978;2023-04-05T14:05:46;97060.97;;;9.01;21.41
25350;BME280;13302;48.796;11.978;2023-04-05T14:08:37;97058.22;;;9.01;21.82
25350;BME280;13302;48.796;11.978;2023-04-05T14:11:24;97055.53;;;8.93;21.68
25350;BME280;13302;48.796;11.978;2023-04-05T14:14:11;97050.47;;;8.95;21.31
25350;BME280;13302;48.796;11.978;2023-04-05T14:16:58;97063.13;;;8.96;21.86
25350;BME280;13302;48.796;11.978;2023-04-05T14:19:45;97052.09;;;8.96;21.55
25350;BME280;13302;48.796;11.978;2023-04-05T14:22:32;97061.63;;;8.98;21.71
25350;BME280;13302;48.796;11.978;2023-04-05T14:25:19;97055.47;;;9.01;21.47
25350;BME280;13302;48.796;11.978;2023-04-05T14:28:06;97052.72;;;9.01;21.43
25350;BME280;13302;48.796;11.978;2023-04-05T14:30:53;97052.03;;;9.04;21.65
25350;BME280;13302;48.796;11.978;2023-04-05T14:33:40;97057.66;;;9.08;21.64
25350;BME280;13302;48.796;11.978;2023-04-05T14:36:27;97058.16;;;9.10;21.76
25350;BME280;13302;48.796;11.978;2023-04-05T14:39:15;97056.66;;;9.12;21.38
25350;BME280;13302;48.796;11.978;2023-04-05T14:42:02;97042.56;;;9.14;21.44
25350;BME280;13302;48.796;11.978;2023-04-05T14:44:49;97046.56;;;9.16;21.36
25350;BME280;13302;48.796;11.978;2023-04-05T14:47:36;97040.25;;;9.16;21.25
25350;BME280;13302;48.796;11.978;2023-04-05T14:50:24;97038.63;;;9.15;21.24
25350;BME280;13302;48.796;11.978;2023-04-05T14:53:11;97040.94;;;9.13;21.17
25350;BME280;13302;48.796;11.978;2023-04-05T14:55:58;97043.31;;;9.14;21.11
25350;BME280;13302;48.796;11.978;2023-04-05T14:58:45;97038.63;;;9.15;21.23
25350;BME280;13302;48.796;11.978;2023-04-05T15:01:32;97038.03;;;9.09;21.05
25350;BME280;13302;48.796;11.978;2023-04-05T15:04:19;97042.63;;;9.05;20.99
25350;BME280;13302;48.796;11.978;2023-04-05T15:07:06;97035.81;;;9.03;21.04
25350;BME280;13302;48.796;11.978;2023-04-05T15:09:53;97033.72;;;9.00;21.21
25350;BME280;13302;48.796;11.978;2023-04-05T15:12:40;97039.44;;;8.95;21.16
25350;BME280;13302;48.796;11.978;2023-04-05T15:15:27;97031.03;;;8.91;21.30
25350;BME280;13302;48.796;11.978;2023-04-05T15:18:14;97038.50;;;8.91;21.43
25350;BME280;13302;48.796;11.978;2023-04-05T15:21:01;97037.38;;;8.92;21.09
25350;BME280;13302;48.796;11.978;2023-04-05T15:23:48;97033.66;;;8.88;21.13